createdAt,value
2023-05-01T00:01:46.980Z,2.70
2023-05-01T00:06:40.789Z,2.60
2023-05-01T00:09:07.427Z,2.97
2023-05-01T00:11:35.682Z,2.60
2023-05-01T00:14:02.312Z,2.90
2023-05-01T00:18:55.860Z,3.10
2023-05-01T00:21:22.508Z,2.92
2023-05-01T00:26:16.299Z,5.38
2023-05-01T00:28:46.588Z,3.80
2023-05-01T00:31:13.306Z,4.20
2023-05-01T00:33:40.731Z,4.90
2023-05-01T00:36:07.385Z,4.32
2023-05-01T00:38:34.023Z,3.42
2023-05-01T00:41:00.652Z,3.40
2023-05-01T00:45:54.344Z,6.78
2023-05-01T00:48:21.188Z,7.55
2023-05-01T00:53:15.990Z,3.80
2023-05-01T00:55:43.215Z,3.90
2023-05-01T00:58:10.996Z,3.42
2023-05-01T01:00:37.835Z,3.10
2023-05-01T01:03:05.107Z,3.03
2023-05-01T01:05:35.394Z,3.10
2023-05-01T01:08:24.188Z,2.88
2023-05-01T01:10:55.689Z,4.20
2023-05-01T01:13:30.310Z,3.60
2023-05-01T01:16:08.370Z,3.65
2023-05-01T01:18:37.960Z,4.35
2023-05-01T01:21:12.083Z,4.10
2023-05-01T01:23:39.413Z,3.60
2023-05-01T01:26:15.291Z,3.38
2023-05-01T01:29:02.974Z,4.63
2023-05-01T01:31:38.880Z,6.07
2023-05-01T01:36:46.688Z,6.53
2023-05-01T01:42:10.544Z,7.32
2023-05-01T01:44:42.926Z,8.98
2023-05-01T01:47:12.313Z,7.75
2023-05-01T01:49:42.507Z,4.80
2023-05-01T01:52:10.510Z,4.13
2023-05-01T01:54:39.166Z,3.55
2023-05-01T01:57:07.720Z,3.60
2023-05-01T02:02:04.224Z,3.42
2023-05-01T02:07:01.386Z,3.58
2023-05-01T02:09:29.064Z,3.50
2023-05-01T02:11:56.442Z,3.55
2023-05-01T02:14:25.244Z,3.63
2023-05-01T02:16:52.572Z,3.38
2023-05-01T02:19:19.739Z,3.50
2023-05-01T02:24:15.544Z,3.45
2023-05-01T02:26:43.335Z,3.40
2023-05-01T02:29:10.642Z,3.45
2023-05-01T02:31:37.346Z,3.30
2023-05-01T02:34:04.417Z,3.03
2023-05-01T02:36:32.189Z,3.47
2023-05-01T02:38:59.618Z,3.47
2023-05-01T02:41:27.861Z,3.58
2023-05-01T02:43:57.738Z,3.60
2023-05-01T02:46:25.897Z,3.60
2023-05-01T02:48:53.338Z,4.50
2023-05-01T02:51:20.905Z,7.68
2023-05-01T02:53:47.721Z,4.38
2023-05-01T02:58:50.464Z,3.38
2023-05-01T03:01:17.492Z,3.40
2023-05-01T03:03:44.573Z,3.30
2023-05-01T03:06:11.374Z,3.40
2023-05-01T03:08:38.068Z,3.20
2023-05-01T03:11:05.295Z,3.28
2023-05-01T03:13:31.992Z,3.50
2023-05-01T03:15:58.874Z,3.42
2023-05-01T03:18:25.821Z,3.70
2023-05-01T03:20:53.829Z,3.38
2023-05-01T03:23:21.503Z,3.40
2023-05-01T03:25:48.111Z,3.80
2023-05-01T03:30:42.133Z,3.42
2023-05-01T03:33:08.858Z,3.42
2023-05-01T03:35:36.027Z,3.80
2023-05-01T03:38:04.729Z,4.00
2023-05-01T03:40:50.348Z,3.92
2023-05-01T03:43:35.832Z,3.45
2023-05-01T03:46:07.806Z,4.03
2023-05-01T03:48:34.522Z,3.60
2023-05-01T03:51:02.058Z,3.85
2023-05-01T03:53:28.852Z,3.55
2023-05-01T03:55:55.889Z,3.55
2023-05-01T03:58:23.275Z,3.40
2023-05-01T04:00:51.096Z,4.05
2023-05-01T04:05:46.917Z,3.60
2023-05-01T04:08:13.586Z,4.30
2023-05-01T04:10:40.815Z,4.57
2023-05-01T04:13:07.615Z,3.67
2023-05-01T04:15:35.045Z,3.97
2023-05-01T04:18:01.911Z,4.05
2023-05-01T04:20:28.762Z,4.03
2023-05-01T04:25:22.340Z,6.18
2023-05-01T04:27:51.345Z,5.43
2023-05-01T04:30:18.370Z,5.65
2023-05-01T04:32:45.476Z,4.78
2023-05-01T04:35:12.687Z,4.22
2023-05-01T04:37:42.549Z,4.47
2023-05-01T04:40:11.650Z,4.15
2023-05-01T04:42:39.381Z,4.32
2023-05-01T04:45:09.281Z,4.22
2023-05-01T04:47:36.427Z,4.50
2023-05-01T04:52:31.367Z,4.63
2023-05-01T04:55:00.410Z,4.60
2023-05-01T04:57:30.393Z,5.03
2023-05-01T04:59:57.676Z,5.15
2023-05-01T05:02:24.990Z,4.60
2023-05-01T05:04:54.010Z,4.85
2023-05-01T05:07:21.697Z,5.03
2023-05-01T05:12:48.409Z,4.45
2023-05-01T05:15:16.573Z,4.43
2023-05-01T05:17:43.251Z,4.78
2023-05-01T05:20:10.263Z,4.70
2023-05-01T05:22:37.807Z,4.75
2023-05-01T05:30:14.126Z,4.82
2023-05-01T05:32:41.196Z,5.00
2023-05-01T05:35:08.118Z,4.72
2023-05-01T05:37:34.913Z,4.82
2023-05-01T05:40:01.678Z,4.68
2023-05-01T05:42:31.949Z,6.00
2023-05-01T05:45:04.111Z,5.18
2023-05-01T05:47:30.808Z,5.05
2023-05-01T05:49:57.860Z,5.60
2023-05-01T05:54:54.675Z,5.13
2023-05-01T05:57:21.451Z,5.20
2023-05-01T05:59:50.688Z,5.18
2023-05-01T06:02:22.346Z,4.70
2023-05-01T06:04:49.262Z,5.32
2023-05-01T06:07:18.502Z,5.10
2023-05-01T06:09:45.586Z,5.13
2023-05-01T06:12:12.350Z,5.13
2023-05-01T06:14:41.274Z,5.95
2023-05-01T06:17:08.864Z,5.30
2023-05-01T06:19:36.154Z,5.22
2023-05-01T06:22:07.935Z,5.05
2023-05-01T06:24:40.733Z,5.93
2023-05-01T06:27:09.108Z,5.78
2023-05-01T06:32:04.556Z,5.50
2023-05-01T06:34:32.147Z,6.20
2023-05-01T06:36:59.377Z,5.22
2023-05-01T06:39:26.042Z,5.53
2023-05-01T06:44:36.101Z,5.88
2023-05-01T06:47:03.150Z,5.50
2023-05-01T06:49:29.786Z,5.95
2023-05-01T06:51:56.500Z,5.63
2023-05-01T06:54:23.152Z,6.00
2023-05-01T06:56:49.861Z,6.07
2023-05-01T06:59:16.505Z,7.10
2023-05-01T07:04:10.080Z,6.30
2023-05-01T07:06:37.443Z,6.40
2023-05-01T07:14:01.172Z,5.90
2023-05-01T07:16:29.012Z,6.53
2023-05-01T07:18:55.677Z,5.97
2023-05-01T07:21:22.326Z,6.43
2023-05-01T07:23:48.970Z,5.95
2023-05-01T07:28:42.528Z,6.43
2023-05-01T07:31:12.278Z,6.03
2023-05-01T07:33:38.897Z,6.47
2023-05-01T07:36:05.603Z,6.07
2023-05-01T07:38:32.706Z,6.05
2023-05-01T07:40:59.332Z,6.82
2023-05-01T07:46:00.425Z,5.90
2023-05-01T07:48:28.750Z,6.20
2023-05-01T07:50:55.872Z,5.13
2023-05-01T07:53:22.967Z,6.18
2023-05-01T07:55:50.014Z,5.40
2023-05-01T07:58:17.573Z,5.90
2023-05-01T08:00:46.883Z,6.25
2023-05-01T08:03:13.746Z,5.65
2023-05-01T08:05:43.451Z,5.47
2023-05-01T08:08:10.385Z,6.03
2023-05-01T08:10:37.173Z,5.35
2023-05-01T08:13:03.906Z,5.55
2023-05-01T08:20:24.946Z,5.80
2023-05-01T08:25:18.520Z,5.93
2023-05-01T08:27:45.180Z,5.78
2023-05-01T08:30:11.936Z,5.47
2023-05-01T08:32:38.600Z,5.60
2023-05-01T08:35:05.479Z,5.85
2023-05-01T08:39:59.076Z,5.97
2023-05-01T08:44:54.759Z,4.78
2023-05-01T08:47:22.171Z,4.80
2023-05-01T08:49:50.988Z,4.93
2023-05-01T08:52:18.775Z,5.15
2023-05-01T08:54:47.048Z,4.65
2023-05-01T08:59:41.080Z,4.90
2023-05-01T09:02:08.898Z,4.75
2023-05-01T09:04:37.632Z,4.00
2023-05-01T09:07:04.993Z,4.53
2023-05-01T09:09:32.422Z,4.55
2023-05-01T09:12:08.380Z,4.40
2023-05-01T09:14:35.097Z,3.92
2023-05-01T09:24:25.135Z,3.60
2023-05-01T09:26:52.398Z,3.85
2023-05-01T09:29:37.198Z,4.38
2023-05-01T09:34:52.995Z,4.32
2023-05-01T09:37:29.605Z,3.65
2023-05-01T09:40:02.025Z,4.30
2023-05-01T09:42:29.686Z,4.03
2023-05-01T09:44:56.677Z,3.90
2023-05-01T09:47:23.433Z,3.92
2023-05-01T09:49:50.204Z,4.10
2023-05-01T09:52:17.096Z,3.80
2023-05-01T09:54:43.808Z,4.30
2023-05-01T09:57:10.504Z,4.18
2023-05-01T09:59:37.195Z,3.83
2023-05-01T10:02:04.168Z,4.75
2023-05-01T10:04:38.555Z,3.83
2023-05-01T10:07:14.792Z,4.50
2023-05-01T10:09:42.461Z,4.38
2023-05-01T10:12:09.164Z,4.50
2023-05-01T10:19:47.554Z,4.95
2023-05-01T10:22:14.601Z,4.60
2023-05-01T10:32:08.281Z,4.38
2023-05-01T10:34:38.074Z,4.53
2023-05-01T10:37:09.516Z,4.70
2023-05-01T10:39:36.847Z,4.50
2023-05-01T10:42:16.833Z,4.22
2023-05-01T10:44:43.822Z,4.57
2023-05-01T10:47:27.973Z,4.95
2023-05-01T10:50:08.045Z,4.60
2023-05-01T10:52:53.594Z,4.43
2023-05-01T10:58:04.554Z,4.85
2023-05-01T11:00:31.661Z,4.97
2023-05-01T11:03:17.582Z,4.57
2023-05-01T11:06:05.737Z,4.15
2023-05-01T11:08:33.736Z,3.92
2023-05-01T11:11:19.222Z,4.60
2023-05-01T11:13:58.115Z,4.22
2023-05-01T11:16:42.847Z,4.50
2023-05-01T11:19:11.084Z,4.50
2023-05-01T11:24:09.456Z,4.80
2023-05-01T11:26:40.044Z,4.40
2023-05-01T11:29:07.200Z,4.05
2023-05-01T11:31:34.018Z,4.50
2023-05-01T11:34:01.039Z,4.43
2023-05-01T11:38:58.551Z,4.10
2023-05-01T11:41:26.213Z,4.70
2023-05-01T11:43:53.645Z,4.25
2023-05-01T11:46:30.096Z,4.70
2023-05-01T11:49:01.412Z,5.05
2023-05-01T11:51:28.708Z,4.80
2023-05-01T11:53:58.432Z,4.25
2023-05-01T11:56:27.030Z,4.10
2023-05-01T11:59:07.543Z,4.20
2023-05-01T12:01:38.492Z,4.20
2023-05-01T12:04:05.783Z,3.78
2023-05-01T12:09:08.333Z,4.18
2023-05-01T12:14:03.030Z,4.35
2023-05-01T12:16:30.302Z,4.13
2023-05-01T12:21:25.693Z,4.38
2023-05-01T12:26:20.241Z,4.50
2023-05-01T12:28:56.819Z,4.40
2023-05-01T12:33:56.960Z,4.15
2023-05-01T12:36:28.314Z,4.20
2023-05-01T12:38:59.182Z,3.85
2023-05-01T12:41:32.677Z,3.83
2023-05-01T12:43:59.370Z,4.50
2023-05-01T12:46:27.384Z,4.15
2023-05-01T12:48:54.869Z,4.00
2023-05-01T12:51:21.987Z,4.05
2023-05-01T12:56:25.742Z,3.83
2023-05-01T12:58:53.874Z,4.00
2023-05-01T13:01:27.619Z,4.47
2023-05-01T13:03:56.813Z,4.30
2023-05-01T13:06:32.488Z,4.22
2023-05-01T13:11:36.450Z,4.18
2023-05-01T13:14:07.999Z,4.55
2023-05-01T13:19:10.940Z,5.53
2023-05-01T13:21:46.057Z,4.03
2023-05-01T13:24:13.669Z,4.40
2023-05-01T13:29:07.457Z,3.95
2023-05-01T13:31:34.667Z,4.10
2023-05-01T13:38:59.636Z,3.85
2023-05-01T13:41:26.887Z,3.47
2023-05-01T13:43:54.256Z,4.22
2023-05-01T13:46:21.786Z,4.20
2023-05-01T13:51:21.140Z,4.80
2023-05-01T13:56:15.462Z,4.97
2023-05-01T13:58:42.849Z,4.90
2023-05-01T14:03:48.835Z,4.80
2023-05-01T14:06:21.485Z,5.22
2023-05-01T14:08:48.959Z,5.65
2023-05-01T14:11:16.077Z,5.63
2023-05-01T14:13:43.665Z,5.13
2023-05-01T14:28:49.131Z,5.70
2023-05-01T14:31:27.616Z,5.82
2023-05-01T14:33:58.338Z,5.80
2023-05-01T14:36:25.234Z,6.35
2023-05-01T14:38:52.219Z,6.38
2023-05-01T14:41:19.719Z,6.50
2023-05-01T14:43:46.552Z,6.15
2023-05-01T14:48:42.960Z,5.97
2023-05-01T14:51:12.873Z,6.32
2023-05-01T14:53:40.314Z,6.03
2023-05-01T14:56:07.507Z,5.97
2023-05-01T14:58:34.147Z,7.65
2023-05-01T15:01:03.943Z,7.55
2023-05-01T15:03:30.900Z,7.07
2023-05-01T15:05:57.905Z,7.28
2023-05-01T15:08:24.753Z,6.45
2023-05-01T15:10:52.991Z,6.30
2023-05-01T15:13:19.949Z,6.22
2023-05-01T15:15:46.609Z,6.40
2023-05-01T15:18:13.385Z,6.00
2023-05-01T15:20:40.088Z,6.25
2023-05-01T15:23:06.712Z,6.28
2023-05-01T15:25:33.446Z,6.50
2023-05-01T15:28:00.143Z,6.05
2023-05-01T15:32:55.941Z,5.68
2023-05-01T15:35:23.772Z,6.00
2023-05-01T15:37:50.771Z,6.38
2023-05-01T15:40:17.429Z,6.35
2023-05-01T15:42:45.662Z,6.63
2023-05-01T15:45:12.292Z,6.38
2023-05-01T15:50:08.355Z,7.38
2023-05-01T15:52:36.023Z,6.88
2023-05-01T15:55:02.834Z,7.78
2023-05-01T15:57:30.073Z,6.97
2023-05-01T15:59:56.789Z,6.82
2023-05-01T16:02:23.949Z,6.10
2023-05-01T16:04:52.031Z,6.70
2023-05-01T16:07:18.659Z,5.90
2023-05-01T16:09:45.256Z,6.82
2023-05-01T16:12:11.965Z,6.20
2023-05-01T16:14:40.212Z,6.78
2023-05-01T16:17:07.217Z,6.57
2023-05-01T16:19:34.092Z,6.00
2023-05-01T16:22:03.252Z,6.57
2023-05-01T16:24:33.824Z,6.68
2023-05-01T16:29:28.070Z,6.47
2023-05-01T16:31:54.794Z,6.30
2023-05-01T16:34:24.187Z,6.40
2023-05-01T16:36:50.915Z,5.75
2023-05-01T16:39:21.722Z,7.10
2023-05-01T16:41:52.394Z,6.45
2023-05-01T16:44:20.543Z,5.82
2023-05-01T16:46:51.476Z,6.22
2023-05-01T16:49:18.382Z,6.20
2023-05-01T16:51:45.136Z,7.43
2023-05-01T16:54:11.926Z,8.00
2023-05-01T16:56:41.601Z,7.75
2023-05-01T17:01:35.380Z,7.82
2023-05-01T17:04:02.378Z,6.38
2023-05-01T17:06:29.155Z,7.53
2023-05-01T17:08:55.845Z,7.53
2023-05-01T17:11:22.818Z,8.30
2023-05-01T17:18:46.623Z,7.28
2023-05-01T17:31:00.770Z,7.32
2023-05-01T17:33:31.819Z,7.25
2023-05-01T17:36:01.507Z,7.35
2023-05-01T17:38:28.105Z,7.03
2023-05-01T17:40:54.791Z,6.45
2023-05-01T17:43:21.519Z,6.25
2023-05-01T17:45:49.606Z,6.40
2023-05-01T17:48:16.408Z,7.00
2023-05-01T17:50:43.125Z,6.90
2023-05-01T17:53:12.139Z,6.20
2023-05-01T17:58:07.301Z,7.38
2023-05-01T18:00:34.028Z,7.35
2023-05-01T18:05:29.301Z,6.90
2023-05-01T18:07:56.221Z,7.72
2023-05-01T18:10:22.927Z,6.57
2023-05-01T18:12:50.084Z,7.15
2023-05-01T18:15:22.050Z,6.82
2023-05-01T18:17:49.734Z,7.03
2023-05-01T18:20:16.550Z,7.30
2023-05-01T18:25:10.300Z,13.48
2023-05-01T18:27:41.758Z,8.80
2023-05-01T18:32:47.656Z,9.00
2023-05-01T18:35:16.451Z,10.90
2023-05-01T18:37:44.258Z,15.80
2023-05-01T18:40:11.177Z,12.48
2023-05-01T18:42:38.074Z,10.38
2023-05-01T18:45:04.950Z,8.05
2023-05-01T18:47:32.713Z,8.00
2023-05-01T18:50:00.050Z,8.20
2023-05-01T18:52:26.877Z,8.30
2023-05-01T18:54:53.509Z,8.35
2023-05-01T18:57:20.143Z,7.63
2023-05-01T18:59:46.795Z,7.40
2023-05-01T19:02:13.463Z,8.60
2023-05-01T19:04:56.193Z,8.52
2023-05-01T19:07:24.748Z,9.05
2023-05-01T19:12:18.476Z,8.88
2023-05-01T19:14:45.112Z,9.18
2023-05-01T19:17:11.759Z,7.95
2023-05-01T19:19:38.435Z,7.63
2023-05-01T19:22:05.140Z,8.18
2023-05-01T19:24:31.801Z,7.97
2023-05-01T19:26:58.540Z,8.05
2023-05-01T19:29:26.013Z,7.35
2023-05-01T19:31:52.748Z,7.20
2023-05-01T19:36:47.647Z,7.20
2023-05-01T19:39:14.419Z,7.32
2023-05-01T19:41:41.109Z,6.93
2023-05-01T19:44:08.144Z,7.30
2023-05-01T19:46:34.786Z,7.88
2023-05-01T19:49:01.420Z,8.60
2023-05-01T19:51:28.927Z,8.57
2023-05-01T19:56:23.361Z,7.53
2023-05-01T19:58:49.985Z,7.55
2023-05-01T20:01:16.839Z,7.22
2023-05-01T20:03:43.606Z,7.80
2023-05-01T20:06:10.341Z,7.45
2023-05-01T20:11:03.990Z,7.30
2023-05-01T20:13:30.610Z,7.22
2023-05-01T20:20:51.103Z,7.93
2023-05-01T20:23:22.954Z,7.53
2023-05-01T20:25:51.872Z,8.00
2023-05-01T20:28:19.109Z,7.25
2023-05-01T20:30:46.630Z,7.30
2023-05-01T20:33:14.227Z,6.80
2023-05-01T20:35:41.054Z,8.43
2023-05-01T20:38:07.736Z,15.98
2023-05-01T20:43:04.093Z,9.25
2023-05-01T20:45:31.120Z,8.68
2023-05-01T20:48:00.302Z,11.73
2023-05-01T20:50:27.869Z,10.25
2023-05-01T20:52:55.335Z,10.02
2023-05-01T20:55:22.345Z,8.02
2023-05-01T20:57:48.990Z,8.15
2023-05-01T21:02:43.196Z,6.85
2023-05-01T21:05:12.914Z,6.93
2023-05-01T21:07:40.245Z,7.50
2023-05-01T21:10:07.778Z,6.90
2023-05-01T21:12:34.455Z,6.85
2023-05-01T21:15:02.078Z,6.75
2023-05-01T21:17:30.406Z,6.93
2023-05-01T21:19:57.177Z,6.90
2023-05-01T21:22:24.115Z,7.13
2023-05-01T21:24:54.584Z,7.22
2023-05-01T21:37:14.063Z,6.72
2023-05-01T21:39:40.771Z,6.60
2023-05-01T21:42:07.782Z,6.85
2023-05-01T21:44:34.451Z,7.30
2023-05-01T21:47:01.511Z,6.95
2023-05-01T21:49:28.494Z,7.47
2023-05-01T21:51:58.511Z,7.22
2023-05-01T21:54:27.875Z,7.03
2023-05-01T21:56:59.344Z,6.43
2023-05-01T21:59:29.521Z,6.63
2023-05-01T22:01:56.157Z,6.72
2023-05-01T22:04:23.332Z,6.70
2023-05-01T22:06:50.149Z,6.47
2023-05-01T22:09:16.785Z,7.00
2023-05-01T22:14:10.408Z,7.47
2023-05-01T22:16:37.163Z,6.70
2023-05-01T22:21:31.937Z,6.70
2023-05-01T22:23:58.625Z,6.53
2023-05-01T22:26:25.363Z,6.40
2023-05-01T22:31:19.678Z,7.53
2023-05-01T22:33:46.558Z,6.57
2023-05-01T22:38:40.089Z,6.85
2023-05-01T22:41:07.205Z,7.05
2023-05-01T22:43:34.236Z,6.68
2023-05-01T22:46:00.925Z,7.57
2023-05-01T22:50:55.307Z,7.43
2023-05-01T22:53:21.953Z,7.80
2023-05-01T22:55:48.658Z,7.53
2023-05-01T22:58:15.325Z,6.45
2023-05-01T23:00:42.102Z,6.95
2023-05-01T23:03:09.572Z,6.90
2023-05-01T23:05:36.368Z,6.57
2023-05-01T23:08:03.221Z,6.63
2023-05-01T23:10:31.174Z,6.05
2023-05-01T23:12:59.668Z,7.32
2023-05-01T23:15:26.944Z,6.15
2023-05-01T23:17:53.590Z,6.05
2023-05-01T23:22:52.300Z,6.30
2023-05-01T23:25:28.552Z,7.43
2023-05-01T23:27:55.691Z,6.80
2023-05-01T23:32:49.944Z,6.40
2023-05-01T23:35:19.353Z,6.55
2023-05-01T23:37:46.018Z,6.65
2023-05-01T23:40:12.698Z,6.35
2023-05-01T23:42:39.623Z,6.78
2023-05-01T23:45:06.842Z,7.07
2023-05-01T23:50:01.055Z,6.93
2023-05-01T23:52:28.416Z,6.85
2023-05-01T23:54:55.082Z,6.53
2023-05-01T23:59:48.648Z,10.90
